sensor_id;sensor_type;location;lat;lon;timestamp;P1;durP1;ratioP1;P2;durP2;ratioP2
67675;SDS011;54456;48.436;10.028;2024-03-02T00:00:31;82.73;;;14.97;;
67675;SDS011;54456;48.436;10.028;2024-03-02T00:02:01;72.53;;;15.17;;
67675;SDS011;54456;48.436;10.028;2024-03-02T00:03:32;73.43;;;14.40;;
67675;SDS011;54456;48.436;10.028;2024-03-02T00:05:02;68.75;;;14.75;;
67675;SDS011;54456;48.436;10.028;2024-03-02T00:06:33;55.97;;;14.00;;
67675;SDS011;54456;48.436;10.028;2024-03-02T00:08:04;43.78;;;12.80;;
67675;SDS011;54456;48.436;10.028;2024-03-02T00:09:35;47.63;;;12.75;;
67675;SDS011;54456;48.436;10.028;2024-03-02T00:11:06;52.83;;;13.10;;
67675;SDS011;54456;48.436;10.028;2024-03-02T00:12:40;41.72;;;12.40;;
67675;SDS011;54456;48.436;10.028;2024-03-02T00:15:45;46.20;;;11.57;;
67675;SDS011;54456;48.436;10.028;2024-03-02T00:17:24;33.17;;;11.10;;
67675;SDS011;54456;48.436;10.028;2024-03-02T00:18:55;36.58;;;11.70;;
67675;SDS011;54456;48.436;10.028;2024-03-02T00:20:26;34.42;;;11.75;;
67675;SDS011;54456;48.436;10.028;2024-03-02T00:21:59;32.30;;;9.95;;
67675;SDS011;54456;48.436;10.028;2024-03-02T00:23:31;37.38;;;11.73;;
67675;SDS011;54456;48.436;10.028;2024-03-02T00:25:01;38.17;;;11.38;;
67675;SDS011;54456;48.436;10.028;2024-03-02T00:26:31;30.35;;;9.02;;
67675;SDS011;54456;48.436;10.028;2024-03-02T00:28:02;36.30;;;11.57;;
67675;SDS011;54456;48.436;10.028;2024-03-02T00:29:32;30.48;;;9.85;;
67675;SDS011;54456;48.436;10.028;2024-03-02T04:15:39;55.85;;;13.15;;
67675;SDS011;54456;48.436;10.028;2024-03-02T04:17:10;61.35;;;13.38;;
67675;SDS011;54456;48.436;10.028;2024-03-02T04:18:40;90.70;;;13.63;;
67675;SDS011;54456;48.436;10.028;2024-03-02T04:20:11;68.43;;;13.93;;
67675;SDS011;54456;48.436;10.028;2024-03-02T04:21:42;75.85;;;13.55;;
67675;SDS011;54456;48.436;10.028;2024-03-02T04:23:12;45.67;;;13.63;;
67675;SDS011;54456;48.436;10.028;2024-03-02T04:24:43;90.73;;;15.20;;
67675;SDS011;54456;48.436;10.028;2024-03-02T04:26:13;50.07;;;12.70;;
67675;SDS011;54456;48.436;10.028;2024-03-02T04:27:44;42.08;;;12.98;;
67675;SDS011;54456;48.436;10.028;2024-03-02T04:29:15;67.07;;;14.40;;
67675;SDS011;54456;48.436;10.028;2024-03-02T04:30:45;64.17;;;14.27;;
67675;SDS011;54456;48.436;10.028;2024-03-02T04:32:15;97.10;;;17.70;;
67675;SDS011;54456;48.436;10.028;2024-03-02T04:33:46;60.17;;;13.40;;
67675;SDS011;54456;48.436;10.028;2024-03-02T04:35:16;71.53;;;14.77;;
67675;SDS011;54456;48.436;10.028;2024-03-02T04:36:46;88.80;;;15.33;;
67675;SDS011;54456;48.436;10.028;2024-03-02T04:38:17;56.70;;;14.07;;
67675;SDS011;54456;48.436;10.028;2024-03-02T04:39:47;46.03;;;13.90;;
67675;SDS011;54456;48.436;10.028;2024-03-02T04:41:17;80.57;;;15.17;;
67675;SDS011;54456;48.436;10.028;2024-03-02T04:42:48;71.82;;;14.27;;
67675;SDS011;54456;48.436;10.028;2024-03-02T04:44:18;52.03;;;13.50;;
67675;SDS011;54456;48.436;10.028;2024-03-02T04:45:48;72.53;;;15.20;;
67675;SDS011;54456;48.436;10.028;2024-03-02T04:47:18;104.70;;;15.23;;
67675;SDS011;54456;48.436;10.028;2024-03-02T04:48:49;93.00;;;14.73;;
67675;SDS011;54456;48.436;10.028;2024-03-02T04:50:25;42.67;;;12.63;;
67675;SDS011;54456;48.436;10.028;2024-03-02T04:51:55;103.10;;;16.33;;
67675;SDS011;54456;48.436;10.028;2024-03-02T04:53:26;57.78;;;13.43;;
67675;SDS011;54456;48.436;10.028;2024-03-02T04:54:57;86.15;;;15.27;;
67675;SDS011;54456;48.436;10.028;2024-03-02T04:56:39;55.28;;;12.73;;
67675;SDS011;54456;48.436;10.028;2024-03-02T04:58:14;78.25;;;15.55;;
67675;SDS011;54456;48.436;10.028;2024-03-02T04:59:44;56.73;;;13.87;;
67675;SDS011;54456;48.436;10.028;2024-03-02T05:01:15;59.72;;;13.93;;
67675;SDS011;54456;48.436;10.028;2024-03-02T05:02:47;71.85;;;14.25;;
67675;SDS011;54456;48.436;10.028;2024-03-02T05:04:17;124.50;;;21.23;;
67675;SDS011;54456;48.436;10.028;2024-03-02T05:05:48;157.88;;;21.13;;
67675;SDS011;54456;48.436;10.028;2024-03-02T05:07:18;110.37;;;16.77;;
67675;SDS011;54456;48.436;10.028;2024-03-02T05:08:48;103.70;;;15.37;;
67675;SDS011;54456;48.436;10.028;2024-03-02T05:10:19;104.40;;;15.37;;
67675;SDS011;54456;48.436;10.028;2024-03-02T05:11:49;57.77;;;13.27;;
67675;SDS011;54456;48.436;10.028;2024-03-02T05:13:36;66.63;;;12.77;;
67675;SDS011;54456;48.436;10.028;2024-03-02T05:15:07;109.65;;;16.40;;
67675;SDS011;54456;48.436;10.028;2024-03-02T05:16:39;134.43;;;18.85;;
67675;SDS011;54456;48.436;10.028;2024-03-02T05:18:11;123.65;;;18.05;;
67675;SDS011;54456;48.436;10.028;2024-03-02T05:19:41;80.40;;;14.43;;
67675;SDS011;54456;48.436;10.028;2024-03-02T05:21:12;97.80;;;15.07;;
67675;SDS011;54456;48.436;10.028;2024-03-02T05:22:42;84.03;;;14.00;;
67675;SDS011;54456;48.436;10.028;2024-03-02T05:24:12;103.35;;;16.52;;
67675;SDS011;54456;48.436;10.028;2024-03-02T05:25:43;78.93;;;14.50;;
67675;SDS011;54456;48.436;10.028;2024-03-02T05:27:15;89.82;;;15.25;;
67675;SDS011;54456;48.436;10.028;2024-03-02T05:28:45;160.85;;;18.00;;
67675;SDS011;54456;48.436;10.028;2024-03-02T05:30:16;93.60;;;16.00;;
67675;SDS011;54456;48.436;10.028;2024-03-02T05:31:46;106.93;;;16.90;;
67675;SDS011;54456;48.436;10.028;2024-03-02T05:33:17;104.10;;;16.42;;
67675;SDS011;54456;48.436;10.028;2024-03-02T05:34:47;105.27;;;17.20;;
67675;SDS011;54456;48.436;10.028;2024-03-02T05:36:17;151.53;;;18.20;;
67675;SDS011;54456;48.436;10.028;2024-03-02T05:37:47;90.03;;;17.67;;
67675;SDS011;54456;48.436;10.028;2024-03-02T05:39:18;84.97;;;14.27;;
67675;SDS011;54456;48.436;10.028;2024-03-02T05:40:49;80.97;;;15.00;;
67675;SDS011;54456;48.436;10.028;2024-03-02T05:42:19;90.87;;;15.83;;
67675;SDS011;54456;48.436;10.028;2024-03-02T05:43:49;143.63;;;17.70;;
67675;SDS011;54456;48.436;10.028;2024-03-02T05:45:20;176.43;;;19.98;;
67675;SDS011;54456;48.436;10.028;2024-03-02T05:46:50;57.65;;;12.38;;
67675;SDS011;54456;48.436;10.028;2024-03-02T05:48:20;56.15;;;12.88;;
67675;SDS011;54456;48.436;10.028;2024-03-02T05:49:51;106.63;;;14.57;;
67675;SDS011;54456;48.436;10.028;2024-03-02T05:51:21;70.60;;;14.03;;
67675;SDS011;54456;48.436;10.028;2024-03-02T05:52:51;59.20;;;13.15;;
67675;SDS011;54456;48.436;10.028;2024-03-02T05:54:22;56.63;;;13.27;;
67675;SDS011;54456;48.436;10.028;2024-03-02T05:55:52;93.83;;;15.03;;
67675;SDS011;54456;48.436;10.028;2024-03-02T05:57:25;150.65;;;17.40;;
67675;SDS011;54456;48.436;10.028;2024-03-02T05:59:13;67.97;;;13.32;;
67675;SDS011;54456;48.436;10.028;2024-03-02T06:00:44;94.72;;;13.13;;
67675;SDS011;54456;48.436;10.028;2024-03-02T06:02:14;85.90;;;14.70;;
67675;SDS011;54456;48.436;10.028;2024-03-02T06:03:44;205.60;;;21.70;;
67675;SDS011;54456;48.436;10.028;2024-03-02T06:05:15;67.57;;;13.07;;
67675;SDS011;54456;48.436;10.028;2024-03-02T06:06:46;55.13;;;13.98;;
67675;SDS011;54456;48.436;10.028;2024-03-02T06:08:17;111.23;;;15.50;;
67675;SDS011;54456;48.436;10.028;2024-03-02T06:09:47;36.30;;;11.43;;
67675;SDS011;54456;48.436;10.028;2024-03-02T06:11:20;90.72;;;14.52;;
67675;SDS011;54456;48.436;10.028;2024-03-02T06:12:51;50.73;;;14.10;;
67675;SDS011;54456;48.436;10.028;2024-03-02T06:14:21;45.67;;;13.20;;
67675;SDS011;54456;48.436;10.028;2024-03-02T06:15:51;74.73;;;14.67;;
67675;SDS011;54456;48.436;10.028;2024-03-02T06:17:22;177.25;;;20.13;;
67675;SDS011;54456;48.436;10.028;2024-03-02T06:18:52;101.70;;;14.47;;
67675;SDS011;54456;48.436;10.028;2024-03-02T06:20:24;160.38;;;17.23;;
67675;SDS011;54456;48.436;10.028;2024-03-02T06:21:56;135.23;;;16.35;;
67675;SDS011;54456;48.436;10.028;2024-03-02T06:23:27;155.70;;;16.67;;
67675;SDS011;54456;48.436;10.028;2024-03-02T06:24:57;64.73;;;13.03;;
67675;SDS011;54456;48.436;10.028;2024-03-02T06:26:27;73.05;;;14.13;;
67675;SDS011;54456;48.436;10.028;2024-03-02T06:27:59;100.50;;;15.90;;
67675;SDS011;54456;48.436;10.028;2024-03-02T06:29:32;170.10;;;19.50;;
67675;SDS011;54456;48.436;10.028;2024-03-02T06:31:02;75.07;;;13.43;;
67675;SDS011;54456;48.436;10.028;2024-03-02T06:32:33;84.35;;;14.38;;
67675;SDS011;54456;48.436;10.028;2024-03-02T06:34:03;138.37;;;17.33;;
67675;SDS011;54456;48.436;10.028;2024-03-02T06:35:34;188.93;;;18.83;;
67675;SDS011;54456;48.436;10.028;2024-03-02T06:37:05;139.13;;;17.83;;
67675;SDS011;54456;48.436;10.028;2024-03-02T06:38:35;80.67;;;13.97;;
67675;SDS011;54456;48.436;10.028;2024-03-02T06:40:06;181.20;;;19.27;;
67675;SDS011;54456;48.436;10.028;2024-03-02T06:41:40;281.70;;;26.88;;
67675;SDS011;54456;48.436;10.028;2024-03-02T06:43:12;205.95;;;21.88;;
67675;SDS011;54456;48.436;10.028;2024-03-02T06:44:43;121.70;;;15.98;;
67675;SDS011;54456;48.436;10.028;2024-03-02T06:46:13;84.78;;;15.10;;
67675;SDS011;54456;48.436;10.028;2024-03-02T06:47:45;125.60;;;15.85;;
67675;SDS011;54456;48.436;10.028;2024-03-02T06:49:15;77.13;;;12.98;;
67675;SDS011;54456;48.436;10.028;2024-03-02T06:50:48;114.25;;;16.25;;
67675;SDS011;54456;48.436;10.028;2024-03-02T06:52:18;115.45;;;16.00;;
67675;SDS011;54456;48.436;10.028;2024-03-02T06:53:50;81.80;;;14.32;;
67675;SDS011;54456;48.436;10.028;2024-03-02T06:55:20;61.83;;;14.67;;
67675;SDS011;54456;48.436;10.028;2024-03-02T06:56:51;71.57;;;15.13;;
67675;SDS011;54456;48.436;10.028;2024-03-02T06:58:21;91.73;;;15.40;;
67675;SDS011;54456;48.436;10.028;2024-03-02T06:59:51;133.53;;;15.57;;
67675;SDS011;54456;48.436;10.028;2024-03-02T07:01:24;123.47;;;17.33;;
67675;SDS011;54456;48.436;10.028;2024-03-02T07:02:56;59.40;;;14.63;;
67675;SDS011;54456;48.436;10.028;2024-03-02T07:04:26;56.63;;;13.18;;
67675;SDS011;54456;48.436;10.028;2024-03-02T07:05:56;77.67;;;13.80;;
67675;SDS011;54456;48.436;10.028;2024-03-02T07:07:27;73.47;;;14.23;;
67675;SDS011;54456;48.436;10.028;2024-03-02T07:08:57;54.37;;;12.23;;
67675;SDS011;54456;48.436;10.028;2024-03-02T07:10:28;47.08;;;11.80;;
67675;SDS011;54456;48.436;10.028;2024-03-02T07:12:01;94.20;;;15.88;;
67675;SDS011;54456;48.436;10.028;2024-03-02T07:13:31;57.33;;;12.27;;
67675;SDS011;54456;48.436;10.028;2024-03-02T07:15:02;67.07;;;14.43;;
67675;SDS011;54456;48.436;10.028;2024-03-02T07:16:33;62.80;;;13.70;;
67675;SDS011;54456;48.436;10.028;2024-03-02T07:18:04;68.00;;;12.70;;
67675;SDS011;54456;48.436;10.028;2024-03-02T07:19:34;43.07;;;11.03;;
67675;SDS011;54456;48.436;10.028;2024-03-02T07:21:05;54.27;;;14.03;;
67675;SDS011;54456;48.436;10.028;2024-03-02T07:22:35;59.28;;;13.10;;
67675;SDS011;54456;48.436;10.028;2024-03-02T07:24:07;53.72;;;14.57;;
67675;SDS011;54456;48.436;10.028;2024-03-02T07:25:39;51.60;;;12.27;;
67675;SDS011;54456;48.436;10.028;2024-03-02T07:27:09;55.37;;;12.73;;
67675;SDS011;54456;48.436;10.028;2024-03-02T07:28:40;76.07;;;15.80;;
67675;SDS011;54456;48.436;10.028;2024-03-02T07:30:13;52.30;;;12.32;;
67675;SDS011;54456;48.436;10.028;2024-03-02T07:31:44;56.42;;;12.45;;
67675;SDS011;54456;48.436;10.028;2024-03-02T07:33:14;63.17;;;13.23;;
67675;SDS011;54456;48.436;10.028;2024-03-02T07:34:46;54.40;;;12.80;;
67675;SDS011;54456;48.436;10.028;2024-03-02T07:36:17;59.33;;;12.53;;
67675;SDS011;54456;48.436;10.028;2024-03-02T07:37:47;60.80;;;12.87;;
67675;SDS011;54456;48.436;10.028;2024-03-02T07:39:17;60.47;;;12.87;;
67675;SDS011;54456;48.436;10.028;2024-03-02T07:40:49;54.42;;;13.13;;
67675;SDS011;54456;48.436;10.028;2024-03-02T07:42:26;59.50;;;17.02;;
67675;SDS011;54456;48.436;10.028;2024-03-02T07:43:56;66.47;;;14.63;;
67675;SDS011;54456;48.436;10.028;2024-03-02T07:45:26;51.95;;;12.60;;
67675;SDS011;54456;48.436;10.028;2024-03-02T07:46:57;113.67;;;22.67;;
67675;SDS011;54456;48.436;10.028;2024-03-02T07:48:27;106.78;;;20.20;;
67675;SDS011;54456;48.436;10.028;2024-03-02T07:49:57;100.05;;;19.38;;
67675;SDS011;54456;48.436;10.028;2024-03-02T07:51:28;69.88;;;14.38;;
67675;SDS011;54456;48.436;10.028;2024-03-02T07:52:58;63.33;;;13.93;;
67675;SDS011;54456;48.436;10.028;2024-03-02T07:54:28;86.90;;;15.03;;
67675;SDS011;54456;48.436;10.028;2024-03-02T07:55:59;127.00;;;21.85;;
67675;SDS011;54456;48.436;10.028;2024-03-02T07:57:32;56.95;;;14.07;;
67675;SDS011;54456;48.436;10.028;2024-03-02T07:59:02;43.28;;;10.45;;
67675;SDS011;54456;48.436;10.028;2024-03-02T08:00:33;59.65;;;13.80;;
67675;SDS011;54456;48.436;10.028;2024-03-02T08:02:03;63.38;;;14.35;;
67675;SDS011;54456;48.436;10.028;2024-03-02T08:03:34;74.40;;;16.35;;
67675;SDS011;54456;48.436;10.028;2024-03-02T08:05:04;83.32;;;17.85;;
67675;SDS011;54456;48.436;10.028;2024-03-02T08:06:35;66.45;;;14.27;;
67675;SDS011;54456;48.436;10.028;2024-03-02T08:08:05;67.95;;;14.00;;
67675;SDS011;54456;48.436;10.028;2024-03-02T08:09:36;61.72;;;12.45;;
67675;SDS011;54456;48.436;10.028;2024-03-02T08:11:06;71.50;;;15.32;;
67675;SDS011;54456;48.436;10.028;2024-03-02T08:12:37;73.63;;;16.83;;
67675;SDS011;54456;48.436;10.028;2024-03-02T08:14:07;74.22;;;15.88;;
67675;SDS011;54456;48.436;10.028;2024-03-02T08:15:37;61.00;;;13.13;;
67675;SDS011;54456;48.436;10.028;2024-03-02T08:17:08;59.20;;;14.87;;
67675;SDS011;54456;48.436;10.028;2024-03-02T08:18:39;91.68;;;16.95;;
67675;SDS011;54456;48.436;10.028;2024-03-02T08:20:10;71.83;;;15.43;;
67675;SDS011;54456;48.436;10.028;2024-03-02T08:21:41;69.38;;;14.30;;
67675;SDS011;54456;48.436;10.028;2024-03-02T08:23:12;70.00;;;14.32;;
67675;SDS011;54456;48.436;10.028;2024-03-02T08:24:43;86.88;;;17.45;;
67675;SDS011;54456;48.436;10.028;2024-03-02T08:26:13;111.43;;;16.97;;
67675;SDS011;54456;48.436;10.028;2024-03-02T08:27:43;76.17;;;17.80;;
67675;SDS011;54456;48.436;10.028;2024-03-02T08:29:14;53.97;;;13.20;;
67675;SDS011;54456;48.436;10.028;2024-03-02T08:30:45;57.95;;;13.88;;
67675;SDS011;54456;48.436;10.028;2024-03-02T08:32:15;65.72;;;14.70;;
67675;SDS011;54456;48.436;10.028;2024-03-02T08:33:47;56.15;;;13.93;;
67675;SDS011;54456;48.436;10.028;2024-03-02T08:35:17;90.37;;;17.40;;
67675;SDS011;54456;48.436;10.028;2024-03-02T08:36:47;70.70;;;14.57;;
67675;SDS011;54456;48.436;10.028;2024-03-02T08:38:18;63.20;;;13.82;;
67675;SDS011;54456;48.436;10.028;2024-03-02T08:39:48;63.20;;;13.90;;
67675;SDS011;54456;48.436;10.028;2024-03-02T08:41:19;52.35;;;13.85;;
67675;SDS011;54456;48.436;10.028;2024-03-02T08:42:50;71.93;;;15.63;;
67675;SDS011;54456;48.436;10.028;2024-03-02T08:44:20;57.60;;;14.00;;
67675;SDS011;54456;48.436;10.028;2024-03-02T08:45:50;75.80;;;13.23;;
67675;SDS011;54456;48.436;10.028;2024-03-02T08:47:21;85.33;;;15.87;;
67675;SDS011;54456;48.436;10.028;2024-03-02T08:48:51;82.30;;;15.83;;
67675;SDS011;54456;48.436;10.028;2024-03-02T08:50:21;62.20;;;12.67;;
67675;SDS011;54456;48.436;10.028;2024-03-02T08:51:52;56.37;;;13.47;;
67675;SDS011;54456;48.436;10.028;2024-03-02T08:53:25;80.70;;;16.30;;
67675;SDS011;54456;48.436;10.028;2024-03-02T08:54:56;55.78;;;13.07;;
67675;SDS011;54456;48.436;10.028;2024-03-02T08:56:26;48.03;;;13.03;;
67675;SDS011;54456;48.436;10.028;2024-03-02T08:57:57;105.32;;;19.30;;
67675;SDS011;54456;48.436;10.028;2024-03-02T08:59:27;63.67;;;16.00;;
67675;SDS011;54456;48.436;10.028;2024-03-02T09:00:57;134.60;;;20.90;;
67675;SDS011;54456;48.436;10.028;2024-03-02T09:02:28;80.75;;;15.52;;
67675;SDS011;54456;48.436;10.028;2024-03-02T09:03:58;67.35;;;16.55;;
67675;SDS011;54456;48.436;10.028;2024-03-02T09:05:29;41.03;;;11.00;;
67675;SDS011;54456;48.436;10.028;2024-03-02T09:06:59;53.27;;;13.17;;
67675;SDS011;54456;48.436;10.028;2024-03-02T09:08:30;56.70;;;13.30;;
67675;SDS011;54456;48.436;10.028;2024-03-02T09:10:00;52.40;;;14.25;;
67675;SDS011;54456;48.436;10.028;2024-03-02T09:11:30;49.93;;;12.80;;
67675;SDS011;54456;48.436;10.028;2024-03-02T09:13:02;64.45;;;13.02;;
67675;SDS011;54456;48.436;10.028;2024-03-02T09:14:33;45.55;;;13.27;;
67675;SDS011;54456;48.436;10.028;2024-03-02T09:16:03;59.47;;;14.80;;
67675;SDS011;54456;48.436;10.028;2024-03-02T09:17:35;54.40;;;13.40;;
67675;SDS011;54456;48.436;10.028;2024-03-02T09:19:05;57.33;;;12.13;;
67675;SDS011;54456;48.436;10.028;2024-03-02T09:20:35;50.43;;;12.10;;
67675;SDS011;54456;48.436;10.028;2024-03-02T09:22:06;39.50;;;11.27;;
67675;SDS011;54456;48.436;10.028;2024-03-02T09:23:36;54.53;;;12.70;;
67675;SDS011;54456;48.436;10.028;2024-03-02T09:25:06;42.03;;;12.20;;
67675;SDS011;54456;48.436;10.028;2024-03-02T09:26:38;45.45;;;12.00;;
67675;SDS011;54456;48.436;10.028;2024-03-02T09:28:09;42.22;;;12.02;;
67675;SDS011;54456;48.436;10.028;2024-03-02T09:29:40;31.15;;;10.07;;
67675;SDS011;54456;48.436;10.028;2024-03-02T09:31:10;41.92;;;11.52;;
67675;SDS011;54456;48.436;10.028;2024-03-02T09:32:41;75.50;;;14.82;;
67675;SDS011;54456;48.436;10.028;2024-03-02T09:34:12;34.00;;;11.00;;
67675;SDS011;54456;48.436;10.028;2024-03-02T09:35:44;29.42;;;9.13;;
67675;SDS011;54456;48.436;10.028;2024-03-02T09:37:14;31.27;;;10.40;;
67675;SDS011;54456;48.436;10.028;2024-03-02T09:38:45;25.90;;;9.23;;
67675;SDS011;54456;48.436;10.028;2024-03-02T09:40:15;34.38;;;11.10;;
67675;SDS011;54456;48.436;10.028;2024-03-02T09:41:47;29.65;;;10.38;;
67675;SDS011;54456;48.436;10.028;2024-03-02T09:43:18;28.13;;;9.20;;
67675;SDS011;54456;48.436;10.028;2024-03-02T09:44:48;61.23;;;12.40;;
67675;SDS011;54456;48.436;10.028;2024-03-02T09:46:18;53.40;;;12.93;;
67675;SDS011;54456;48.436;10.028;2024-03-02T09:47:49;28.50;;;9.32;;
67675;SDS011;54456;48.436;10.028;2024-03-02T09:49:20;30.08;;;9.52;;
67675;SDS011;54456;48.436;10.028;2024-03-02T09:50:50;29.30;;;9.10;;
67675;SDS011;54456;48.436;10.028;2024-03-02T09:52:22;31.83;;;9.68;;
67675;SDS011;54456;48.436;10.028;2024-03-02T09:53:54;27.00;;;9.23;;
67675;SDS011;54456;48.436;10.028;2024-03-02T09:55:25;24.40;;;8.93;;
67675;SDS011;54456;48.436;10.028;2024-03-02T09:56:56;22.83;;;7.90;;
67675;SDS011;54456;48.436;10.028;2024-03-02T09:58:26;27.38;;;8.60;;
67675;SDS011;54456;48.436;10.028;2024-03-02T09:59:57;24.17;;;9.30;;
67675;SDS011;54456;48.436;10.028;2024-03-02T10:01:27;27.27;;;9.33;;
67675;SDS011;54456;48.436;10.028;2024-03-02T10:02:57;21.30;;;7.78;;
67675;SDS011;54456;48.436;10.028;2024-03-02T10:04:29;12.43;;;5.20;;
67675;SDS011;54456;48.436;10.028;2024-03-02T10:06:18;23.65;;;8.75;;
67675;SDS011;54456;48.436;10.028;2024-03-02T10:08:01;19.08;;;7.07;;
67675;SDS011;54456;48.436;10.028;2024-03-02T10:09:32;20.05;;;7.00;;
67675;SDS011;54456;48.436;10.028;2024-03-02T10:11:02;22.43;;;7.37;;
67675;SDS011;54456;48.436;10.028;2024-03-02T10:12:33;21.25;;;7.60;;
67675;SDS011;54456;48.436;10.028;2024-03-02T10:14:10;19.30;;;6.93;;
67675;SDS011;54456;48.436;10.028;2024-03-02T10:15:41;19.67;;;7.70;;
67675;SDS011;54456;48.436;10.028;2024-03-02T10:17:12;22.42;;;8.45;;
67675;SDS011;54456;48.436;10.028;2024-03-02T10:18:43;20.25;;;7.43;;
67675;SDS011;54456;48.436;10.028;2024-03-02T10:20:23;21.70;;;7.37;;
67675;SDS011;54456;48.436;10.028;2024-03-02T10:21:54;20.60;;;7.47;;
67675;SDS011;54456;48.436;10.028;2024-03-02T10:23:24;19.88;;;7.57;;
67675;SDS011;54456;48.436;10.028;2024-03-02T10:24:55;21.45;;;8.25;;
67675;SDS011;54456;48.436;10.028;2024-03-02T10:26:25;21.70;;;8.32;;
67675;SDS011;54456;48.436;10.028;2024-03-02T10:27:57;18.35;;;6.53;;
67675;SDS011;54456;48.436;10.028;2024-03-02T10:29:29;20.73;;;7.43;;
67675;SDS011;54456;48.436;10.028;2024-03-02T10:31:00;17.17;;;7.03;;
67675;SDS011;54456;48.436;10.028;2024-03-02T10:32:30;21.60;;;8.90;;
67675;SDS011;54456;48.436;10.028;2024-03-02T10:34:01;22.45;;;8.13;;
67675;SDS011;54456;48.436;10.028;2024-03-02T10:35:32;20.83;;;7.90;;
67675;SDS011;54456;48.436;10.028;2024-03-02T10:37:02;20.23;;;8.00;;
67675;SDS011;54456;48.436;10.028;2024-03-02T10:38:33;20.73;;;7.60;;
67675;SDS011;54456;48.436;10.028;2024-03-02T10:40:04;18.92;;;7.13;;
67675;SDS011;54456;48.436;10.028;2024-03-02T10:41:36;19.42;;;7.18;;
67675;SDS011;54456;48.436;10.028;2024-03-02T10:43:08;20.92;;;8.15;;
67675;SDS011;54456;48.436;10.028;2024-03-02T10:44:38;15.93;;;6.63;;
67675;SDS011;54456;48.436;10.028;2024-03-02T10:46:09;19.17;;;8.10;;
67675;SDS011;54456;48.436;10.028;2024-03-02T10:47:39;13.82;;;4.65;;
67675;SDS011;54456;48.436;10.028;2024-03-02T10:49:11;17.58;;;5.57;;
67675;SDS011;54456;48.436;10.028;2024-03-02T10:50:41;20.45;;;7.47;;
67675;SDS011;54456;48.436;10.028;2024-03-02T10:52:12;19.80;;;7.40;;
67675;SDS011;54456;48.436;10.028;2024-03-02T10:53:42;19.42;;;6.93;;
67675;SDS011;54456;48.436;10.028;2024-03-02T10:55:12;21.30;;;7.80;;
67675;SDS011;54456;48.436;10.028;2024-03-02T10:56:43;16.85;;;5.47;;
67675;SDS011;54456;48.436;10.028;2024-03-02T10:58:15;20.27;;;6.43;;
67675;SDS011;54456;48.436;10.028;2024-03-02T10:59:52;9.18;;;3.42;;
67675;SDS011;54456;48.436;10.028;2024-03-02T11:01:23;17.15;;;6.22;;
67675;SDS011;54456;48.436;10.028;2024-03-02T11:02:59;20.55;;;8.70;;
67675;SDS011;54456;48.436;10.028;2024-03-02T11:04:40;21.00;;;8.52;;
67675;SDS011;54456;48.436;10.028;2024-03-02T11:06:11;16.98;;;6.70;;
67675;SDS011;54456;48.436;10.028;2024-03-02T11:07:41;16.08;;;6.18;;
67675;SDS011;54456;48.436;10.028;2024-03-02T11:09:12;15.45;;;5.30;;
67675;SDS011;54456;48.436;10.028;2024-03-02T11:12:32;17.80;;;5.75;;
67675;SDS011;54456;48.436;10.028;2024-03-02T11:14:07;15.27;;;5.43;;
67675;SDS011;54456;48.436;10.028;2024-03-02T11:15:43;18.05;;;6.65;;
67675;SDS011;54456;48.436;10.028;2024-03-02T11:17:14;17.90;;;6.45;;
67675;SDS011;54456;48.436;10.028;2024-03-02T11:20:19;17.02;;;6.80;;
67675;SDS011;54456;48.436;10.028;2024-03-02T11:21:50;16.65;;;6.18;;
67675;SDS011;54456;48.436;10.028;2024-03-02T11:23:21;13.80;;;5.15;;
67675;SDS011;54456;48.436;10.028;2024-03-02T11:25:02;13.55;;;5.90;;
67675;SDS011;54456;48.436;10.028;2024-03-02T11:26:33;10.75;;;4.05;;
67675;SDS011;54456;48.436;10.028;2024-03-02T11:28:09;11.25;;;4.25;;
67675;SDS011;54456;48.436;10.028;2024-03-02T11:31:09;12.50;;;4.20;;
67675;SDS011;54456;48.436;10.028;2024-03-02T11:32:40;14.18;;;5.63;;
67675;SDS011;54456;48.436;10.028;2024-03-02T11:34:17;13.68;;;4.57;;
67675;SDS011;54456;48.436;10.028;2024-03-02T11:35:48;13.10;;;4.63;;
67675;SDS011;54456;48.436;10.028;2024-03-02T11:37:19;9.75;;;4.07;;
67675;SDS011;54456;48.436;10.028;2024-03-02T11:38:50;12.63;;;4.22;;
67675;SDS011;54456;48.436;10.028;2024-03-02T11:40:24;11.05;;;4.40;;
67675;SDS011;54456;48.436;10.028;2024-03-02T11:41:55;13.25;;;5.00;;
67675;SDS011;54456;48.436;10.028;2024-03-02T11:43:27;9.73;;;4.13;;
67675;SDS011;54456;48.436;10.028;2024-03-02T11:44:59;10.75;;;3.80;;
67675;SDS011;54456;48.436;10.028;2024-03-02T11:46:29;13.48;;;4.95;;
67675;SDS011;54456;48.436;10.028;2024-03-02T11:48:00;11.45;;;4.20;;
67675;SDS011;54456;48.436;10.028;2024-03-02T11:49:41;8.57;;;3.22;;
67675;SDS011;54456;48.436;10.028;2024-03-02T11:51:12;11.23;;;4.35;;
67675;SDS011;54456;48.436;10.028;2024-03-02T11:52:43;12.23;;;4.60;;
67675;SDS011;54456;48.436;10.028;2024-03-02T11:54:13;10.07;;;3.73;;
67675;SDS011;54456;48.436;10.028;2024-03-02T11:55:43;10.15;;;4.55;;
67675;SDS011;54456;48.436;10.028;2024-03-02T11:57:17;10.85;;;5.40;;
67675;SDS011;54456;48.436;10.028;2024-03-02T11:58:49;8.68;;;3.10;;
67675;SDS011;54456;48.436;10.028;2024-03-02T12:00:23;8.25;;;3.17;;
67675;SDS011;54456;48.436;10.028;2024-03-02T12:01:53;6.40;;;2.57;;
67675;SDS011;54456;48.436;10.028;2024-03-02T12:03:24;7.25;;;3.15;;
67675;SDS011;54456;48.436;10.028;2024-03-02T12:04:55;9.27;;;2.80;;
67675;SDS011;54456;48.436;10.028;2024-03-02T12:06:26;9.90;;;3.60;;
67675;SDS011;54456;48.436;10.028;2024-03-02T12:07:58;10.48;;;4.35;;
67675;SDS011;54456;48.436;10.028;2024-03-02T12:09:29;12.57;;;6.05;;
67675;SDS011;54456;48.436;10.028;2024-03-02T12:11:01;13.32;;;5.15;;
67675;SDS011;54456;48.436;10.028;2024-03-02T12:12:32;11.25;;;4.13;;
67675;SDS011;54456;48.436;10.028;2024-03-02T12:14:02;11.87;;;4.80;;
67675;SDS011;54456;48.436;10.028;2024-03-02T12:15:35;9.73;;;4.10;;
67675;SDS011;54456;48.436;10.028;2024-03-02T12:17:09;14.23;;;5.75;;
67675;SDS011;54456;48.436;10.028;2024-03-02T12:18:41;12.67;;;4.77;;
67675;SDS011;54456;48.436;10.028;2024-03-02T12:21:44;9.32;;;3.72;;
67675;SDS011;54456;48.436;10.028;2024-03-02T12:23:14;9.70;;;4.03;;
67675;SDS011;54456;48.436;10.028;2024-03-02T12:24:44;12.80;;;5.05;;
67675;SDS011;54456;48.436;10.028;2024-03-02T12:26:16;13.45;;;6.10;;
67675;SDS011;54456;48.436;10.028;2024-03-02T12:27:46;13.35;;;6.55;;
67675;SDS011;54456;48.436;10.028;2024-03-02T12:29:21;12.02;;;4.35;;
67675;SDS011;54456;48.436;10.028;2024-03-02T12:30:51;12.50;;;5.40;;
67675;SDS011;54456;48.436;10.028;2024-03-02T12:32:22;12.55;;;4.28;;
67675;SDS011;54456;48.436;10.028;2024-03-02T12:33:52;11.47;;;4.83;;
67675;SDS011;54456;48.436;10.028;2024-03-02T12:35:23;8.60;;;3.33;;
67675;SDS011;54456;48.436;10.028;2024-03-02T12:36:54;10.70;;;4.50;;
67675;SDS011;54456;48.436;10.028;2024-03-02T12:38:25;11.02;;;4.28;;
67675;SDS011;54456;48.436;10.028;2024-03-02T12:39:56;11.95;;;5.72;;